• Join FlightAware (Why Join?)
  • Login
  • US Flag 
07:06PM EDT


 

Airport Tracker/Info


-or-


 

Live Flight TrackerFlight Track Log ✈ VH-SCC ✈ 02-Oct-2013 ✈ YPAD / ADL - YSBK / BWU

Flight Track Log - Related Links

Times and Time Zones

All times are in EDT time to prevent confusion due to time zone crossing. See the VH-SCC flight status page for this flight to view local times or setup timezone preferences in your user account.

Time Position Orientation Groundspeed Altitude Reporting Facility
EDT Latitude Longitude Course Direction KTS MPH feet Rate Location/Type
03:30AM -34.9704 138.4973 230° Southwest 178 205 2,500  Level Aus ATC (RADAR)
03:31AM -34.9911 138.4673 230° Southwest 195 224 4,900 3,840 Climbing Aus ATC (RADAR)
03:32AM -35.0200 138.4274 229° Southwest 189 217 7,900 3,540 Climbing Aus ATC (RADAR)
03:32AM -35.0297 138.4164 223° Southwest 191 220 8,700 3,120 Climbing Aus ATC (RADAR)
03:32AM -35.0641 138.4254 168° South 227 261 10,500 2,760 Climbing Aus ATC (RADAR)
03:34AM -35.1055 138.5467 113° Southeast 294 338 14,800 2,640 Climbing Aus ATC (RADAR)
03:35AM -35.1000 138.5995 83° East 315 362 16,100 2,700 Climbing Aus ATC (RADAR)
03:35AM -35.0964 138.6550 85° East 329 379 17,500 3,120 Climbing Aus ATC (RADAR)
03:36AM -35.0911 138.7472 86° East 329 379 20,300 2,880 Climbing Aus ATC (RADAR)
03:37AM -35.0907 138.8212 90° East 331 381 21,900 2,220 Climbing Aus ATC (RADAR)
03:37AM -35.0899 138.9097 89° East 352 405 23,500 2,340 Climbing Aus ATC (RADAR)
03:38AM -35.0883 139.0516 89° East 359 413 26,400 2,220 Climbing Aus ATC (RADAR)
03:39AM -35.0870 139.1324 89° East 361 415 27,600 1,560 Climbing Aus ATC (RADAR)
03:39AM -35.0868 139.1635 90° East 365 420 27,900 1,440 Climbing Aus ATC (RADAR)
03:40AM -35.0858 139.2376 89° East 375 432 28,800 780 Climbing Aus ATC (RADAR)
03:41AM -35.0846 139.3621 89° East 411 473 29,100 180 Climbing Aus ATC (RADAR)
03:41AM -35.0828 139.4602 89° East 433 498 29,100  Level Aus ATC (RADAR)
03:43AM -35.0807 139.6028 89° East 419 482 29,100  Level Aus ATC (RADAR)
03:44AM -35.0773 139.8235 89° East 410 472 29,100  Level Aus ATC (RADAR)
03:45AM -35.0752 139.9501 89° East 407 468 29,100  Level Aus ATC (RADAR)
03:45AM -35.0748 139.9846 89° East 406 467 29,100  Level Aus ATC (RADAR)
03:46AM -35.0727 140.0535 88° East 407 468 29,100  Level Aus ATC (RADAR)
03:46AM -35.0711 140.1459 89° East 409 471 29,100  Level Aus ATC (RADAR)
03:47AM -35.0692 140.2159 88° East 412 474 29,100  Level Aus ATC (RADAR)
03:47AM -35.0676 140.2973 89° East 412 474 29,100  Level Aus ATC (RADAR)
03:49AM -35.0641 140.4832 89° East 411 473 29,100  Level Aus ATC (RADAR)
03:49AM -35.0634 140.5299 89° East 412 474 29,100  Level Aus ATC (RADAR)
03:50AM -35.0604 140.6235 88° East 413 475 29,100  Level Aus ATC (RADAR)
03:50AM -35.0589 140.7051 89° East 414 476 29,100  Level Aus ATC (RADAR)
03:51AM -35.0549 140.8457 88° East 416 479 29,100  Level Aus ATC (RADAR)
03:52AM -35.0542 140.8928 89° East 415 478 29,100  Level Aus ATC (RADAR)
03:52AM -35.0512 140.9754 88° East 417 480 29,100  Level Aus ATC (RADAR)
03:53AM -35.0494 141.0706 89° East 420 483 29,100  Level Aus ATC (RADAR)
03:54AM -35.0438 141.2611 88° East 421 484 29,100  Level Aus ATC (RADAR)
03:55AM -35.0425 141.2968 87° East 421 484 29,100  Level Aus ATC (RADAR)
03:55AM -35.0391 141.3804 87° East 423 487 29,100  Level Aus ATC (RADAR)
03:56AM -35.0364 141.4879 88° East 423 487 29,100  Level Aus ATC (RADAR)
03:56AM -35.0339 141.5595 88° East 423 487 29,100  Level Aus ATC (RADAR)
03:57AM -35.0312 141.6552 88° East 425 489 29,100  Level Aus ATC (RADAR)
03:58AM -35.0270 141.7514 87° East 426 490 29,100  Level Aus ATC (RADAR)
03:59AM -35.0219 141.9203 88° East 427 491 29,100  Level Aus ATC (RADAR)
03:59AM -35.0191 142.0042 88° East 424 488 29,100  Level Aus ATC (RADAR)
04:00AM -35.0187 142.0283 89° East 424 488 29,100  Level Aus ATC (RADAR)
04:00AM -35.0145 142.1246 87° East 426 490 29,100  Level Aus ATC (RADAR)
04:01AM -35.0096 142.2465 87° East 430 495 29,100  Level Aus ATC (RADAR)
04:02AM -35.0070 142.3327 88° East 435 501 29,100  Level Aus ATC (RADAR)
04:02AM -35.0023 142.4431 87° East 435 501 29,100  Level Aus ATC (RADAR)
04:03AM -35.0005 142.4923 87° East 436 502 29,100  Level Aus ATC (RADAR)
04:04AM -34.9939 142.6538 87° East 440 506 29,100  Level Aus ATC (RADAR)
04:04AM -34.9911 142.7293 87° East 445 512 29,100 -180 Level Aus ATC (RADAR)
04:05AM -34.9894 142.7671 87° East 445 512 29,000 -120 Descending Aus ATC (RADAR)
04:05AM -34.9855 142.8558 87° East 447 514 29,000  Level Aus ATC (RADAR)
04:06AM -34.9801 142.9945 87° East 446 513 29,000  Level Aus ATC (RADAR)
04:07AM -34.9757 143.0828 86° East 445 512 29,000  Level Aus ATC (RADAR)
04:08AM -34.9695 143.2215 87° East 445 512 29,000  Level Aus ATC (RADAR)
04:08AM -34.9645 143.2965 85° East 442 509 29,000  Level Aus ATC (RADAR)
04:09AM -34.9533 143.4696 86° East 437 503 29,000  Level Aus ATC (RADAR)
04:10AM -34.9498 143.5189 85° East 436 502 29,000  Level Aus ATC (RADAR)
04:10AM -34.9452 143.5799 85° East 433 498 29,000  Level Aus ATC (RADAR)
04:11AM -34.9329 143.7521 85° East 433 498 29,000  Level Aus ATC (RADAR)
04:12AM -34.9272 143.8346 85° East 421 484 29,000  Level Aus ATC (RADAR)
04:13AM -34.9193 143.9570 86° East 431 496 29,000  Level Aus ATC (RADAR)
04:13AM -34.9125 144.0421 84° East 430 495 29,000 -120 Level Aus ATC (RADAR)
04:14AM -34.9033 144.1766 85° East 433 498 28,900 -120 Descending Aus ATC (RADAR)
04:14AM -34.8994 144.2245 84° East 428 493 28,900  Level Aus ATC (RADAR)
04:15AM -34.8928 144.3099 85° East 430 495 28,900  Level Aus ATC (RADAR)
04:16AM -34.8835 144.4316 85° East 427 491 28,900  Level Aus ATC (RADAR)
04:16AM -34.8771 144.5158 85° East 426 490 28,900  Level Aus ATC (RADAR)
04:17AM -34.8678 144.6373 85° East 430 495 28,900  Level Aus ATC (RADAR)
04:18AM -34.8637 144.6978 85° East 429 494 28,900  Level Aus ATC (RADAR)
04:18AM -34.8554 144.7948 84° East 429 494 28,900  Level Aus ATC (RADAR)
04:19AM -34.8434 144.9529 85° East 429 494 28,900  Level Aus ATC (RADAR)
04:20AM -34.8390 145.0014 84° East 430 495 28,900  Level Aus ATC (RADAR)
04:20AM -34.8324 145.0857 85° East 427 491 28,900  Level Aus ATC (RADAR)
04:21AM -34.8244 145.1828 84° East 429 494 28,900  Level Aus ATC (RADAR)
04:22AM -34.8174 145.2678 84° East 430 495 28,900  Level Aus ATC (RADAR)
04:22AM -34.8082 145.3765 84° East 426 490 28,900  Level Aus ATC (RADAR)
04:23AM -34.8020 145.4491 84° East 427 491 28,900  Level Aus ATC (RADAR)
04:23AM -34.7951 145.5339 84° East 428 493 28,900  Level Aus ATC (RADAR)
04:24AM -34.7828 145.6782 84° East 426 490 28,900  Level Aus ATC (RADAR)
04:25AM -34.7761 145.7507 84° East 426 490 28,900  Level Aus ATC (RADAR)
04:26AM -34.7681 145.8467 84° East 425 489 28,900  Level Aus ATC (RADAR)
04:26AM -34.7606 145.9306 84° East 424 488 28,900  Level Aus ATC (RADAR)
04:27AM -34.7505 146.0256 83° East 421 484 28,900  Level Aus ATC (RADAR)
04:28AM -34.7214 146.1863 78° East 414 476 28,900  Level Aus ATC (RADAR)
04:28AM -34.7144 146.2325 80° East 413 475 28,900  Level Aus ATC (RADAR)
04:30AM -34.6902 146.3705 78° East 414 476 28,900  Level Aus ATC (RADAR)
04:30AM -34.6883 146.3821 79° East 414 476 28,900  Level Aus ATC (RADAR)
04:31AM -34.6727 146.4742 78° East 414 476 28,900  Level Aus ATC (RADAR)
04:31AM -34.6471 146.6229 78° East 412 474 28,900  Level Aus ATC (RADAR)
04:32AM -34.6345 146.6911 77° East 409 471 28,900  Level Aus ATC (RADAR)
04:32AM -34.6204 146.7707 78° East 408 470 28,900  Level Aus ATC (RADAR)
04:33AM -34.6050 146.8615 78° East 408 470 28,900  Level Aus ATC (RADAR)
04:34AM -34.5909 146.9409 78° East 408 470 28,900  Level Aus ATC (RADAR)
04:35AM -34.5627 147.0988 78° East 406 467 28,900  Level Aus ATC (RADAR)
04:35AM -34.5535 147.1551 79° East 404 465 28,900  Level Aus ATC (RADAR)
04:36AM -34.5391 147.2336 78° East 403 464 28,900  Level Aus ATC (RADAR)
04:36AM -34.5192 147.3457 78° East 403 464 28,900  Level Aus ATC (RADAR)
04:37AM -34.5046 147.4237 77° East 402 463 28,900  Level Aus ATC (RADAR)
04:38AM -34.4845 147.5349 78° East 400 460 28,900  Level Aus ATC (RADAR)
04:38AM -34.4742 147.5905 77° East 400 460 28,900  Level Aus ATC (RADAR)
04:39AM -34.4599 147.6683 77° East 400 460 28,900  Level Aus ATC (RADAR)
04:40AM -34.4378 147.7911 78° East 400 460 28,900  Level Aus ATC (RADAR)
04:40AM -34.4247 147.8574 77° East 399 459 28,900  Level Aus ATC (RADAR)
04:41AM -34.4110 147.9352 78° East 398 458 28,900  Level Aus ATC (RADAR)
04:41AM -34.3961 148.0122 77° East 397 457 28,900  Level Aus ATC (RADAR)
04:42AM -34.3819 148.0892 77° East 396 456 28,900  Level Aus ATC (RADAR)
04:43AM -34.3612 148.1979 77° East 392 451 28,900  Level Aus ATC (RADAR)
04:43AM -34.3512 148.2524 77° East 393 452 28,900  Level Aus ATC (RADAR)
04:44AM -34.3370 148.3283 77° East 391 450 28,900  Level Aus ATC (RADAR)
04:45AM -34.3083 148.4790 77° East 388 447 28,900  Level Aus ATC (RADAR)
04:45AM -34.3020 148.5114 77° East 389 448 28,900  Level Aus ATC (RADAR)
04:46AM -34.2876 148.5871 77° East 389 448 28,900  Level Aus ATC (RADAR)
04:47AM -34.2688 148.6839 77° East 388 447 28,900  Level Aus ATC (RADAR)
04:47AM -34.2527 148.7704 77° East 390 449 28,900  Level Aus ATC (RADAR)
04:48AM -34.2399 148.8353 77° East 389 448 28,900  Level Aus ATC (RADAR)
04:48AM -34.2252 148.9106 77° East 387 445 28,900  Level Aus ATC (RADAR)
04:49AM -34.2107 148.9858 77° East 387 445 28,900  Level Aus ATC (RADAR)
04:50AM -34.1833 149.1249 77° East 385 443 28,900  Level Aus ATC (RADAR)
04:50AM -34.1770 149.1571 77° East 386 444 28,900  Level Aus ATC (RADAR)
04:51AM -34.1621 149.2319 76° East 386 444 28,900  Level Aus ATC (RADAR)
04:52AM -34.1411 149.3386 77° East 385 443 28,900  Level Aus ATC (RADAR)
04:52AM -34.1262 149.4132 76° East 385 443 28,900  Level Aus ATC (RADAR)
04:53AM -34.1069 149.5088 76° East 383 441 28,900  Level Aus ATC (RADAR)
04:53AM -34.0966 149.5620 77° East 383 441 28,900 -120 Level Aus ATC (RADAR)
04:54AM -34.0816 149.6364 76° East 383 441 28,800 -1,500 Descending Aus ATC (RADAR)
04:55AM -34.0577 149.7555 76° East 386 444 26,700 -2,340 Descending Aus ATC (RADAR)
04:55AM -34.0467 149.8097 76° East 386 444 25,700 -2,340 Descending Aus ATC (RADAR)
04:56AM -34.0331 149.8742 76° East 384 442 24,300 -2,700 Descending Aus ATC (RADAR)
04:57AM -34.0115 149.9821 76° East 383 441 22,200 -2,760 Descending Aus ATC (RADAR)
04:57AM -33.9961 150.0569 76° East 381 438 20,800 -2,520 Descending Aus ATC (RADAR)
04:58AM -33.9765 150.1525 76° East 377 434 18,900 -2,580 Descending Aus ATC (RADAR)
04:58AM -33.9659 150.2047 76° East 373 429 17,900 -2,400 Descending Aus ATC (RADAR)
04:59AM -33.9533 150.2662 76° East 365 420 16,500 -1,740 Descending Aus ATC (RADAR)
05:00AM -33.9355 150.3559 77° East 352 405 14,500 -1,800 Descending Aus ATC (RADAR)
05:01AM -33.9274 150.4051 79° East 345 397 13,500 -4,500 Descending Aus ATC (RADAR)
05:01AM -33.9292 150.5302 91° East 326 375 10,500 -3,960 Descending Aus ATC (RADAR)
05:02AM -33.9320 150.6317 92° East 313 360 8,100 -2,580 Descending Aus ATC (RADAR)
05:03AM -33.9335 150.6938 92° East 304 350 7,000 -2,340 Descending Aus ATC (RADAR)
05:03AM -33.9358 150.7668 92° East 281 323 5,000 -2,760 Descending Aus ATC (RADAR)
05:04AM -33.9389 150.8116 95° East 258 297 3,600 -1,980 Descending Aus ATC (RADAR)
05:05AM -33.9408 150.8570 93° East 222 255 2,900 -840 Descending Aus ATC (RADAR)
05:06AM -33.9332 150.9487 84° East 234 269 2,200 -1,080 Descending Aus ATC (RADAR)
05:06AM -33.9320 150.9689 86° East 233 268 1,400 -1,320 Descending Aus ATC (RADAR)
05:07AM -33.9497 151.0054 120° Southeast 209 241 1,100 -900 Descending Aus ATC (RADAR)
05:07AM -33.9318 151.0054 360° North 131 151 200 -1,200 Descending Aus ATC (RADAR)